createdAt,value
2023-11-22T00:00:14.818Z,8.18
2023-11-22T00:02:41.708Z,7.32
2023-11-22T00:05:08.773Z,8.65
2023-11-22T00:07:35.402Z,9.20
2023-11-22T00:10:02.592Z,8.07
2023-11-22T00:12:29.241Z,8.45
2023-11-22T00:14:55.812Z,8.00
2023-11-22T00:17:23.108Z,9.07
2023-11-22T00:19:49.770Z,7.82
2023-11-22T00:22:16.319Z,8.13
2023-11-22T00:24:42.916Z,7.30
2023-11-22T00:27:09.646Z,8.38
2023-11-22T00:29:36.170Z,7.83
2023-11-22T00:32:03.089Z,6.70
2023-11-22T00:34:29.628Z,6.50
2023-11-22T00:36:56.161Z,7.18
2023-11-22T00:39:23.551Z,6.90
2023-11-22T00:41:50.183Z,6.90
2023-11-22T00:44:16.813Z,7.72
2023-11-22T00:46:43.513Z,6.88
2023-11-22T00:49:10.071Z,7.70
2023-11-22T00:51:36.691Z,8.48
2023-11-22T00:54:03.306Z,7.23
2023-11-22T00:56:30.335Z,6.47
2023-11-22T00:59:00.731Z,6.88
2023-11-22T01:01:27.474Z,6.28
2023-11-22T01:03:54.097Z,7.15
2023-11-22T01:06:20.726Z,6.50
2023-11-22T01:08:49.087Z,6.93
2023-11-22T01:11:15.657Z,7.28
2023-11-22T01:13:43.863Z,6.60
2023-11-22T01:16:11.359Z,6.65
2023-11-22T01:18:39.960Z,7.07
2023-11-22T01:21:07.148Z,6.55
2023-11-22T01:23:33.735Z,6.22
2023-11-22T01:26:01.400Z,7.18
2023-11-22T01:28:28.431Z,6.13
2023-11-22T01:30:55.641Z,7.60
2023-11-22T01:33:23.094Z,7.75
2023-11-22T01:35:50.977Z,8.05
2023-11-22T01:38:17.671Z,7.72
2023-11-22T01:40:48.475Z,7.53
2023-11-22T01:43:28.075Z,6.40
2023-11-22T01:45:56.017Z,7.68
2023-11-22T01:48:22.832Z,7.28
2023-11-22T01:50:49.880Z,7.10
2023-11-22T01:53:17.572Z,7.75
2023-11-22T01:55:45.860Z,8.37
2023-11-22T01:58:12.906Z,7.15
2023-11-22T02:00:50.371Z,7.22
2023-11-22T02:03:17.738Z,7.55
2023-11-22T02:05:45.322Z,6.28
2023-11-22T02:08:14.349Z,6.43
2023-11-22T02:10:42.989Z,6.53
2023-11-22T02:13:09.625Z,7.28
2023-11-22T02:15:36.460Z,7.93
2023-11-22T02:18:11.168Z,6.47
2023-11-22T02:20:39.974Z,7.10
2023-11-22T02:23:10.915Z,8.07
2023-11-22T02:25:37.528Z,7.28
2023-11-22T02:28:04.288Z,7.95
2023-11-22T02:30:30.947Z,8.55
2023-11-22T02:32:57.657Z,7.07
2023-11-22T02:35:24.934Z,7.72
2023-11-22T02:37:51.532Z,8.27
2023-11-22T02:40:21.503Z,7.95
2023-11-22T02:42:54.163Z,7.68
2023-11-22T02:45:28.415Z,7.10
2023-11-22T02:47:55.140Z,7.82
2023-11-22T02:50:22.062Z,5.78
2023-11-22T02:52:48.609Z,5.72
2023-11-22T02:55:15.976Z,6.28
2023-11-22T02:57:42.626Z,6.03
2023-11-22T03:00:10.446Z,6.75
2023-11-22T03:02:38.443Z,7.82
2023-11-22T03:05:05.594Z,7.15
2023-11-22T03:07:32.145Z,5.95
2023-11-22T03:10:01.499Z,6.30
2023-11-22T03:12:28.608Z,5.85
2023-11-22T03:14:59.639Z,6.43
2023-11-22T03:17:26.186Z,7.18
2023-11-22T03:19:52.961Z,6.82
2023-11-22T03:22:19.820Z,8.10
2023-11-22T03:24:46.437Z,8.45
2023-11-22T03:27:12.955Z,7.20
2023-11-22T03:29:39.517Z,8.02
2023-11-22T03:32:06.460Z,6.90
2023-11-22T03:34:33.018Z,8.13
2023-11-22T03:36:59.588Z,7.63
2023-11-22T03:39:26.093Z,7.15
2023-11-22T03:41:52.587Z,7.72
2023-11-22T03:44:19.127Z,7.78
2023-11-22T03:46:45.762Z,7.70
2023-11-22T03:49:12.384Z,9.50
2023-11-22T03:51:40.289Z,8.05
2023-11-22T03:54:07.064Z,9.77
2023-11-22T03:56:34.765Z,8.30
2023-11-22T03:59:01.364Z,9.35
2023-11-22T04:01:28.019Z,9.38
2023-11-22T04:03:55.385Z,8.40
2023-11-22T04:06:22.295Z,8.32
2023-11-22T04:08:48.910Z,7.78
2023-11-22T04:11:16.147Z,9.33
2023-11-22T04:13:42.995Z,9.43
2023-11-22T04:16:10.385Z,8.88
2023-11-22T04:18:37.342Z,8.45
2023-11-22T04:21:05.951Z,8.57
2023-11-22T04:23:35.982Z,9.23
2023-11-22T04:26:02.712Z,7.78
2023-11-22T04:28:33.124Z,10.38
2023-11-22T04:30:59.997Z,9.25
2023-11-22T04:33:29.295Z,9.32
2023-11-22T04:35:56.323Z,9.85
2023-11-22T04:38:23.133Z,9.65
2023-11-22T04:40:49.679Z,10.02
2023-11-22T04:43:16.208Z,8.40
2023-11-22T04:45:42.846Z,9.15
2023-11-22T04:48:09.636Z,9.10
2023-11-22T04:50:36.935Z,9.63
2023-11-22T04:53:03.472Z,9.68
2023-11-22T04:55:30.082Z,9.93
2023-11-22T04:57:56.652Z,10.93
2023-11-22T05:00:26.267Z,9.63
2023-11-22T05:02:52.986Z,8.38
2023-11-22T05:05:19.770Z,10.35
2023-11-22T05:07:46.348Z,10.52
2023-11-22T05:10:12.986Z,9.95
2023-11-22T05:12:39.930Z,10.13
2023-11-22T05:15:08.614Z,9.48
2023-11-22T05:17:35.535Z,9.90
2023-11-22T05:20:02.852Z,10.30
2023-11-22T05:22:29.596Z,10.48
2023-11-22T05:24:57.240Z,9.20
2023-11-22T05:27:23.837Z,9.00
2023-11-22T05:29:55.059Z,10.43
2023-11-22T05:32:22.572Z,8.98
2023-11-22T05:34:49.279Z,8.55
2023-11-22T05:37:16.045Z,9.52
2023-11-22T05:39:42.694Z,9.73
2023-11-22T05:42:09.252Z,9.43
2023-11-22T05:44:35.899Z,9.40
2023-11-22T05:47:02.710Z,9.50
2023-11-22T05:49:29.589Z,9.38
2023-11-22T05:51:56.230Z,8.90
2023-11-22T05:54:22.748Z,11.05
2023-11-22T05:56:49.813Z,9.02
2023-11-22T05:59:16.531Z,9.50
2023-11-22T06:01:43.117Z,9.55
2023-11-22T06:04:10.954Z,9.32
2023-11-22T06:06:38.093Z,9.35
2023-11-22T06:09:06.591Z,8.35
2023-11-22T06:11:33.354Z,8.23
2023-11-22T06:13:59.967Z,8.43
2023-11-22T06:16:26.577Z,8.77
2023-11-22T06:18:53.191Z,7.65
2023-11-22T06:21:20.232Z,8.20
2023-11-22T06:23:46.954Z,8.85
2023-11-22T06:26:13.658Z,8.50
2023-11-22T06:28:40.252Z,8.07
2023-11-22T06:31:06.824Z,8.75
2023-11-22T06:33:33.391Z,9.50
2023-11-22T06:35:59.939Z,7.47
2023-11-22T06:38:26.490Z,8.73
2023-11-22T06:40:53.029Z,9.07
2023-11-22T06:43:19.620Z,7.38
2023-11-22T06:45:46.300Z,7.82
2023-11-22T06:48:13.198Z,8.80
2023-11-22T06:50:40.629Z,7.37
2023-11-22T06:53:07.548Z,6.60
2023-11-22T06:55:34.341Z,8.20
2023-11-22T06:58:00.943Z,8.75
2023-11-22T07:00:28.878Z,9.48
2023-11-22T07:02:55.500Z,8.63
2023-11-22T07:05:22.117Z,8.63
2023-11-22T07:07:50.812Z,8.07
2023-11-22T07:10:17.415Z,7.78
2023-11-22T07:12:44.584Z,8.75
2023-11-22T07:15:11.524Z,7.70
2023-11-22T07:17:38.279Z,8.18
2023-11-22T07:20:09.619Z,8.32
2023-11-22T07:22:36.774Z,7.95
2023-11-22T07:25:03.611Z,8.27
2023-11-22T07:27:30.299Z,8.00
2023-11-22T07:29:57.214Z,7.97
2023-11-22T07:32:24.061Z,7.05
2023-11-22T07:34:50.612Z,8.02
2023-11-22T07:37:19.324Z,8.90
2023-11-22T07:39:46.067Z,8.97
2023-11-22T07:42:12.752Z,9.50
2023-11-22T07:44:40.406Z,9.43
2023-11-22T07:47:10.518Z,9.65
2023-11-22T07:49:40.415Z,8.88
2023-11-22T07:52:08.077Z,9.97
2023-11-22T07:54:36.563Z,9.43
2023-11-22T07:57:03.326Z,9.75
2023-11-22T07:59:29.908Z,9.23
2023-11-22T08:01:56.503Z,11.07
2023-11-22T08:04:24.697Z,10.03
2023-11-22T08:06:52.480Z,10.45
2023-11-22T08:09:20.836Z,9.75
2023-11-22T08:11:47.423Z,8.20
2023-11-22T08:14:14.519Z,8.55
2023-11-22T08:16:43.908Z,8.57
2023-11-22T08:19:10.734Z,9.75
2023-11-22T08:21:37.578Z,9.38
2023-11-22T08:24:04.429Z,9.45
2023-11-22T08:26:31.199Z,6.72
2023-11-22T08:28:57.821Z,7.13
2023-11-22T08:31:24.372Z,6.88
2023-11-22T08:33:50.941Z,7.88
2023-11-22T08:36:17.820Z,9.82
2023-11-22T08:38:45.450Z,12.57
2023-11-22T08:41:15.305Z,11.57
2023-11-22T08:43:42.613Z,12.40
2023-11-22T08:46:14.153Z,13.98
2023-11-22T08:48:43.009Z,13.48
2023-11-22T08:51:11.283Z,13.68
2023-11-22T08:53:38.352Z,14.52
2023-11-22T08:56:07.215Z,13.88
2023-11-22T08:58:34.963Z,14.65
2023-11-22T09:01:01.755Z,15.18
2023-11-22T09:03:29.005Z,15.50
2023-11-22T09:05:56.750Z,15.73
2023-11-22T09:08:26.775Z,15.73
2023-11-22T09:10:55.584Z,13.85
2023-11-22T09:13:23.726Z,16.05
2023-11-22T09:15:51.065Z,16.67
2023-11-22T09:18:17.956Z,15.68
2023-11-22T09:20:47.345Z,16.17
2023-11-22T09:23:15.458Z,16.88
2023-11-22T09:25:42.191Z,16.73
2023-11-22T09:28:10.568Z,16.83
2023-11-22T09:30:40.082Z,15.15
2023-11-22T09:33:08.779Z,14.77
2023-11-22T09:35:36.952Z,14.20
2023-11-22T09:38:05.434Z,11.70
2023-11-22T09:40:33.273Z,13.30
2023-11-22T09:43:01.646Z,16.52
2023-11-22T09:45:28.330Z,16.52
2023-11-22T09:47:56.331Z,17.10
2023-11-22T09:50:58.090Z,14.00
2023-11-22T09:53:37.453Z,15.00
2023-11-22T09:56:05.608Z,15.77
2023-11-22T09:58:35.074Z,10.52
2023-11-22T10:01:02.802Z,15.73
2023-11-22T10:03:32.095Z,11.85
2023-11-22T10:06:05.342Z,13.85
2023-11-22T10:08:32.513Z,14.30
2023-11-22T10:11:00.516Z,13.07
2023-11-22T10:13:27.760Z,15.98
2023-11-22T10:15:54.789Z,12.05
2023-11-22T10:18:22.634Z,14.32
2023-11-22T10:20:53.819Z,14.27
2023-11-22T10:23:25.541Z,14.45
2023-11-22T10:25:53.880Z,14.65
2023-11-22T10:28:21.758Z,9.70
2023-11-22T10:30:50.907Z,15.57
2023-11-22T10:33:17.791Z,14.27
2023-11-22T10:35:49.491Z,16.98
2023-11-22T10:38:20.022Z,15.43
2023-11-22T10:40:48.974Z,16.40
2023-11-22T10:43:16.906Z,15.38
2023-11-22T10:45:49.738Z,14.55
2023-11-22T10:48:21.236Z,13.88
2023-11-22T10:50:49.346Z,12.50
2023-11-22T10:53:25.790Z,13.20
2023-11-22T10:55:58.946Z,11.18
2023-11-22T10:58:26.897Z,8.57
2023-11-22T11:00:53.877Z,12.23
2023-11-22T11:03:23.329Z,9.50
2023-11-22T11:06:00.190Z,9.23
2023-11-22T11:08:28.796Z,11.07
2023-11-22T11:10:57.195Z,11.35
2023-11-22T11:13:24.775Z,11.20
2023-11-22T11:15:53.317Z,9.70
2023-11-22T11:18:21.021Z,8.43
2023-11-22T11:20:51.881Z,8.75
2023-11-22T11:23:26.407Z,9.68
2023-11-22T11:26:09.464Z,7.05
2023-11-22T11:28:48.828Z,10.95
2023-11-22T11:31:16.548Z,10.50
2023-11-22T11:33:56.436Z,10.27
2023-11-22T11:36:24.059Z,8.00
2023-11-22T11:38:51.914Z,9.82
2023-11-22T11:41:18.951Z,9.13
2023-11-22T11:43:47.535Z,10.10
2023-11-22T11:46:15.180Z,8.73
2023-11-22T11:48:45.978Z,10.82
2023-11-22T11:51:16.971Z,10.07
2023-11-22T11:53:43.945Z,11.32
2023-11-22T11:56:11.272Z,10.63
2023-11-22T11:58:38.848Z,10.48
2023-11-22T12:01:07.944Z,10.95
2023-11-22T12:03:37.399Z,10.57
2023-11-22T12:06:04.370Z,10.93
2023-11-22T12:08:31.703Z,11.00
2023-11-22T12:10:59.993Z,10.52
2023-11-22T12:13:27.322Z,10.70
2023-11-22T12:15:57.149Z,10.00
2023-11-22T12:18:24.428Z,10.25
2023-11-22T12:20:58.814Z,10.98
2023-11-22T12:23:29.152Z,11.25
2023-11-22T12:26:00.093Z,10.65
2023-11-22T12:28:31.328Z,8.68
2023-11-22T12:31:08.363Z,11.20
2023-11-22T12:33:36.456Z,8.43
2023-11-22T12:36:03.589Z,8.63
2023-11-22T12:38:30.814Z,9.60
2023-11-22T12:41:00.625Z,9.80
2023-11-22T12:43:36.862Z,9.93
2023-11-22T12:46:08.698Z,8.85
2023-11-22T12:48:35.407Z,8.57
2023-11-22T12:51:01.965Z,10.95
2023-11-22T12:53:31.858Z,8.20
2023-11-22T12:55:59.108Z,9.25
2023-11-22T12:58:26.814Z,7.40
2023-11-22T13:00:59.307Z,8.32
2023-11-22T13:03:29.629Z,8.70
2023-11-22T13:05:56.500Z,9.15
2023-11-22T13:08:23.406Z,7.95
2023-11-22T13:11:01.114Z,9.13
2023-11-22T13:13:32.302Z,6.72
2023-11-22T13:15:59.142Z,7.25
2023-11-22T13:18:27.799Z,6.20
2023-11-22T13:20:54.582Z,6.57
2023-11-22T13:23:21.820Z,7.40
2023-11-22T13:25:51.452Z,7.18
2023-11-22T13:28:18.427Z,6.72
2023-11-22T13:30:45.227Z,7.38
2023-11-22T13:33:12.988Z,7.72
2023-11-22T13:35:39.980Z,7.90
2023-11-22T13:38:11.954Z,8.80
2023-11-22T13:40:42.351Z,6.05
2023-11-22T13:43:09.464Z,7.72
2023-11-22T13:45:39.169Z,6.90
2023-11-22T13:48:08.016Z,6.32
2023-11-22T13:50:35.584Z,8.60
2023-11-22T13:53:02.879Z,6.95
2023-11-22T13:55:29.575Z,7.35
2023-11-22T13:57:58.336Z,8.45
2023-11-22T14:00:35.750Z,6.15
2023-11-22T14:03:11.806Z,7.60
2023-11-22T14:05:40.102Z,8.13
2023-11-22T14:08:07.729Z,8.82
2023-11-22T14:10:34.415Z,9.02
2023-11-22T14:13:01.791Z,9.07
2023-11-22T14:15:32.450Z,9.23
2023-11-22T14:17:59.420Z,9.00
2023-11-22T14:20:26.255Z,8.30
2023-11-22T14:22:54.015Z,8.98
2023-11-22T14:25:20.761Z,9.82
2023-11-22T14:27:52.836Z,8.90
2023-11-22T14:30:22.168Z,10.88
2023-11-22T14:32:48.964Z,10.27
2023-11-22T14:35:15.893Z,10.13
2023-11-22T14:37:43.544Z,11.55
2023-11-22T14:40:15.178Z,9.85
2023-11-22T14:42:54.144Z,10.23
2023-11-22T14:45:23.760Z,8.25
2023-11-22T14:47:52.967Z,9.77
2023-11-22T14:50:22.119Z,9.30
2023-11-22T14:52:50.547Z,10.10
2023-11-22T14:55:17.568Z,9.85
2023-11-22T14:57:44.299Z,10.50
2023-11-22T15:00:15.415Z,8.20
2023-11-22T15:02:47.933Z,9.27
2023-11-22T15:05:14.690Z,8.98
2023-11-22T15:07:43.045Z,10.48
2023-11-22T15:10:11.181Z,10.15
2023-11-22T15:12:40.518Z,12.05
2023-11-22T15:15:08.536Z,11.95
2023-11-22T15:17:35.917Z,9.73
2023-11-22T15:20:02.522Z,8.10
2023-11-22T15:22:29.035Z,12.18
2023-11-22T15:24:55.575Z,11.50
2023-11-22T15:27:22.096Z,11.32
2023-11-22T15:29:48.721Z,11.43
2023-11-22T15:32:15.429Z,10.68
2023-11-22T15:34:41.990Z,11.65
2023-11-22T15:37:08.612Z,12.40
2023-11-22T15:39:35.121Z,11.35
2023-11-22T15:42:01.732Z,11.93
2023-11-22T15:44:28.344Z,10.57
2023-11-22T15:46:54.873Z,11.00
2023-11-22T15:49:21.461Z,12.80
2023-11-22T15:51:47.996Z,10.70
2023-11-22T15:54:14.603Z,11.38
2023-11-22T15:56:41.649Z,8.55
2023-11-22T15:59:10.788Z,11.27
2023-11-22T16:01:38.700Z,11.18
2023-11-22T16:04:06.485Z,11.63
2023-11-22T16:06:34.305Z,12.10
2023-11-22T16:09:01.162Z,10.93
2023-11-22T16:11:27.725Z,9.15
2023-11-22T16:13:54.365Z,11.73
2023-11-22T16:16:23.375Z,10.13
2023-11-22T16:18:50.085Z,9.55
2023-11-22T16:21:16.742Z,10.57
2023-11-22T16:23:43.354Z,10.52
2023-11-22T16:26:10.507Z,12.57
2023-11-22T16:28:38.187Z,8.73
2023-11-22T16:31:06.196Z,11.07
2023-11-22T16:33:33.104Z,9.43
2023-11-22T16:35:59.920Z,9.55
2023-11-22T16:38:26.621Z,12.18
2023-11-22T16:40:54.564Z,9.75
2023-11-22T16:43:21.946Z,11.05
2023-11-22T16:45:50.561Z,11.35
2023-11-22T16:48:18.179Z,11.38
2023-11-22T16:50:44.969Z,10.73
2023-11-22T16:53:12.309Z,9.90
2023-11-22T16:55:39.986Z,11.63
2023-11-22T16:58:07.192Z,9.07
2023-11-22T17:00:34.171Z,10.13
2023-11-22T17:03:01.514Z,11.15
2023-11-22T17:05:28.391Z,10.45
2023-11-22T17:07:55.842Z,7.95
2023-11-22T17:10:44.708Z,10.32
2023-11-22T17:13:12.569Z,9.20
2023-11-22T17:15:41.140Z,10.48
2023-11-22T17:18:08.563Z,8.32
2023-11-22T17:20:35.450Z,9.82
2023-11-22T17:23:02.120Z,10.30
2023-11-22T17:25:28.786Z,9.30
2023-11-22T17:27:55.918Z,6.57
2023-11-22T17:30:25.504Z,7.78
2023-11-22T17:32:52.522Z,8.85
2023-11-22T17:35:19.458Z,8.23
2023-11-22T17:37:46.121Z,7.13
2023-11-22T17:40:15.047Z,6.20
2023-11-22T17:42:41.629Z,7.55
2023-11-22T17:45:08.748Z,9.57
2023-11-22T17:47:37.413Z,9.27
2023-11-22T17:50:05.948Z,8.77
2023-11-22T17:52:32.829Z,7.13
2023-11-22T17:55:00.013Z,8.02
2023-11-22T17:57:28.096Z,8.52
2023-11-22T17:59:55.222Z,8.20
2023-11-22T18:02:21.843Z,9.38
2023-11-22T18:04:48.453Z,8.98
2023-11-22T18:07:16.341Z,7.85
2023-11-22T18:09:43.579Z,6.57
2023-11-22T18:12:11.836Z,7.38
2023-11-22T18:14:38.532Z,6.95
2023-11-22T18:17:05.846Z,6.90
2023-11-22T18:19:32.616Z,5.75
2023-11-22T18:21:59.395Z,7.45
2023-11-22T18:24:28.499Z,7.80
2023-11-22T18:26:56.334Z,6.65
2023-11-22T18:29:24.644Z,6.88
2023-11-22T18:31:52.116Z,7.85
2023-11-22T18:34:19.059Z,7.55
2023-11-22T18:36:46.124Z,6.65
2023-11-22T18:39:13.933Z,6.03
2023-11-22T18:41:40.697Z,6.60
2023-11-22T18:44:08.364Z,7.40
2023-11-22T18:46:36.372Z,5.78
2023-11-22T18:49:03.127Z,6.15
2023-11-22T18:51:29.746Z,7.95
2023-11-22T18:53:56.437Z,7.18
2023-11-22T18:56:23.112Z,7.88
2023-11-22T18:58:50.188Z,7.13
2023-11-22T19:01:17.247Z,5.28
2023-11-22T19:03:44.018Z,6.65
2023-11-22T19:06:10.790Z,7.03
2023-11-22T19:08:38.365Z,7.45
2023-11-22T19:11:05.167Z,6.60
2023-11-22T19:13:34.573Z,6.55
2023-11-22T19:16:02.630Z,6.15
2023-11-22T19:18:31.411Z,5.68
2023-11-22T19:21:04.120Z,5.53
2023-11-22T19:23:31.304Z,6.60
2023-11-22T19:26:00.683Z,5.82
2023-11-22T19:28:31.475Z,6.20
2023-11-22T19:30:58.704Z,5.78
2023-11-22T19:33:25.962Z,6.40
2023-11-22T19:35:52.940Z,6.82
2023-11-22T19:38:21.673Z,5.85
2023-11-22T19:40:49.085Z,5.90
2023-11-22T19:43:17.169Z,5.85
2023-11-22T19:45:44.916Z,5.57
2023-11-22T19:48:11.865Z,5.35
2023-11-22T19:50:38.592Z,5.95
2023-11-22T19:53:05.225Z,5.65
2023-11-22T19:55:32.602Z,6.53
2023-11-22T19:58:00.732Z,6.03
2023-11-22T20:00:27.905Z,5.20
2023-11-22T20:02:55.553Z,5.40
2023-11-22T20:05:22.294Z,5.18
2023-11-22T20:07:48.925Z,5.60
2023-11-22T20:10:15.619Z,5.57
2023-11-22T20:12:45.479Z,5.57
2023-11-22T20:15:12.320Z,6.03
2023-11-22T20:17:39.143Z,5.67
2023-11-22T20:20:07.920Z,5.68
2023-11-22T20:22:34.696Z,4.60
2023-11-22T20:25:01.807Z,4.90
2023-11-22T20:27:29.647Z,5.23
2023-11-22T20:29:56.754Z,5.35
2023-11-22T20:32:25.490Z,4.25
2023-11-22T20:34:52.104Z,5.93
2023-11-22T20:37:18.677Z,4.78
2023-11-22T20:39:45.410Z,5.90
2023-11-22T20:42:12.447Z,5.13
2023-11-22T20:44:39.057Z,5.15
2023-11-22T20:47:06.016Z,4.43
2023-11-22T20:49:32.784Z,5.25
2023-11-22T20:51:59.670Z,4.17
2023-11-22T20:54:26.772Z,5.75
2023-11-22T20:56:53.291Z,5.03
2023-11-22T20:59:20.014Z,5.03
2023-11-22T21:01:47.097Z,5.15
2023-11-22T21:04:13.922Z,3.83
2023-11-22T21:06:43.749Z,4.43
2023-11-22T21:09:11.782Z,5.28
2023-11-22T21:11:42.259Z,4.47
2023-11-22T21:14:10.027Z,5.72
2023-11-22T21:16:45.828Z,4.93
2023-11-22T21:19:13.148Z,6.28
2023-11-22T21:21:39.938Z,5.15
2023-11-22T21:24:06.946Z,4.07
2023-11-22T21:26:33.678Z,5.40
2023-11-22T21:29:00.366Z,5.33
2023-11-22T21:31:26.954Z,5.80
2023-11-22T21:33:53.600Z,5.07
2023-11-22T21:36:20.481Z,4.70
2023-11-22T21:38:47.099Z,5.80
2023-11-22T21:41:14.247Z,5.33
2023-11-22T21:43:42.622Z,5.97
2023-11-22T21:46:09.447Z,5.90
2023-11-22T21:48:36.328Z,4.13
2023-11-22T21:51:03.997Z,5.25
2023-11-22T21:53:30.602Z,5.90
2023-11-22T21:55:57.139Z,5.18
2023-11-22T21:58:23.724Z,4.85
2023-11-22T22:00:51.733Z,4.63
2023-11-22T22:03:19.593Z,4.72
2023-11-22T22:05:46.929Z,4.97
2023-11-22T22:08:14.920Z,5.20
2023-11-22T22:10:42.275Z,5.13
2023-11-22T22:13:09.362Z,4.97
2023-11-22T22:15:36.517Z,4.38
2023-11-22T22:18:04.459Z,5.07
2023-11-22T22:20:40.133Z,5.70
2023-11-22T22:23:13.941Z,5.97
2023-11-22T22:25:44.137Z,4.85
2023-11-22T22:28:11.188Z,5.20
2023-11-22T22:30:38.812Z,5.87
2023-11-22T22:33:06.136Z,5.05
2023-11-22T22:35:33.104Z,5.97
2023-11-22T22:37:59.877Z,5.32
2023-11-22T22:40:26.406Z,5.40
2023-11-22T22:42:52.974Z,5.53
2023-11-22T22:45:19.627Z,6.38
2023-11-22T22:47:46.606Z,5.43
2023-11-22T22:50:13.604Z,5.53
2023-11-22T22:52:40.694Z,5.68
2023-11-22T22:55:08.707Z,5.63
2023-11-22T22:57:38.710Z,4.82
2023-11-22T23:00:12.390Z,4.68
2023-11-22T23:02:39.744Z,5.30
2023-11-22T23:05:15.739Z,5.70
2023-11-22T23:07:47.679Z,4.87
2023-11-22T23:10:14.481Z,5.88
2023-11-22T23:12:41.117Z,6.03
2023-11-22T23:15:09.054Z,5.50
2023-11-22T23:17:35.903Z,5.90
2023-11-22T23:20:09.319Z,5.13
2023-11-22T23:22:35.871Z,6.53
2023-11-22T23:25:02.428Z,5.63
2023-11-22T23:27:29.038Z,5.90
2023-11-22T23:29:55.688Z,5.93
2023-11-22T23:32:22.447Z,6.43
2023-11-22T23:34:48.951Z,5.93
2023-11-22T23:37:15.468Z,5.00
2023-11-22T23:39:42.798Z,5.50
2023-11-22T23:42:14.852Z,5.93
2023-11-22T23:44:41.525Z,5.10
2023-11-22T23:47:08.026Z,5.95
2023-11-22T23:49:34.572Z,5.25
2023-11-22T23:52:03.405Z,5.65
2023-11-22T23:54:30.690Z,6.15
2023-11-22T23:56:57.218Z,5.17
2023-11-22T23:59:24.188Z,6.10
